Latest Weather Observations for Leinster

IDW60801

Issued at 4:32 pm WST Thursday 11 February 2016 (issued every 30 minutes, with the page automatically refreshed every 10 minutes)

About weather observations | Map of weather stations | Latest weather observations for WA | Other Formats
Station Details ID: 012314 Name: LEINSTER AERO Lat: -27.84 Lon: 120.70 Height: 497.0 m
Data from the previous 72 hours. | See also: Recent months at Leinster
Date/Time
WST
Temp
°C
App
Temp
°C
Dew
Point
Rel
Hum
%
Delta-T
°C
Wind Press
QNH
hPa
Press
MSL
hPa
Rain
since 9 am
mm
Dir
 
Spd
km/h
Gust
km/h
Spd
kts
Gust
kts
11/04:30pm 39.6 33.5 -2.6 7 21.1 E 20 33 11 18 1012.9 1009.2 0.0
11/04:00pm 39.7 33.5 -4.6 6 21.5 E 19 35 10 19 1013.0 1009.3 0.0
11/03:30pm 39.3 33.3 -2.8 7 20.9 ESE 19 30 10 16 1013.0 1009.3 0.0
11/03:00pm 39.6 33.8 -4.6 6 21.4 ESE 17 30 9 16 1013.3 1009.6 0.0
11/02:30pm 39.5 34.1 -4.7 6 21.3 ESE 15 33 8 18 1013.6 1009.9 0.0
11/02:00pm 39.5 33.9 -2.6 7 21.0 E 17 33 9 18 1014.0 1010.2 0.0
11/01:30pm 38.9 33.5 -1.3 8 20.4 E 17 32 9 17 1014.3 1010.6 0.0
11/01:00pm 39.3 33.6 -1.0 8 20.6 E 19 35 10 19 1014.7 1011.0 0.0
11/12:30pm 38.7 32.9 -1.4 8 20.3 E 19 33 10 18 1015.2 1011.5 0.0
11/12:00pm 38.0 32.1 -1.9 8 19.9 E 19 28 10 15 1015.5 1011.8 0.0
11/11:30am 38.2 33.7 -0.2 9 19.7 E 13 22 7 12 1015.8 1012.2 0.0
11/11:00am 36.6 32.0 -1.4 9 18.9 ESE 13 20 7 11 1016.3 1012.6 0.0
11/10:30am 36.0 31.3 0.9 11 18.1 ENE 15 24 8 13 1016.7 1013.0 0.0
11/10:00am 34.8 30.5 3.4 14 16.7 E 15 24 8 13 1017.1 1013.4 0.0
11/09:30am 33.8 29.5 5.4 17 15.5 ENE 17 26 9 14 1017.3 1013.6 0.0
11/09:00am 32.2 27.6 5.7 19 14.4 ENE 19 26 10 14 1017.5 1013.8 0.0
11/08:30am 30.9 26.5 6.7 22 13.3 ENE 19 28 10 15 1017.5 1013.8 0.0
11/08:00am 30.2 25.5 6.1 22 13.1 ENE 20 28 11 15 1017.4 1013.7 0.0
11/07:30am 28.6 23.5 6.1 24 12.1 ENE 22 32 12 17 1017.3 1013.6 0.0
11/07:00am 26.8 23.2 6.8 28 10.8 ENE 15 22 8 12 1017.1 1013.4 0.0
11/06:30am 25.0 21.6 5.7 29 10.1 E 13 17 7 9 1016.9 1013.2 0.0
11/06:00am 23.6 20.0 5.0 30 9.5 E 13 17 7 9 1016.7 1013.0 0.0
11/05:30am 24.0 20.4 4.9 29 9.8 E 13 15 7 8 1016.5 1012.8 0.0
11/05:00am 24.6 21.3 4.4 27 10.3 ENE 11 15 6 8 1016.2 1012.5 0.0
11/04:30am 24.8 21.4 4.0 26 10.5 ENE 11 15 6 8 1015.8 1012.2 0.0
11/04:00am 24.8 21.8 4.0 26 10.5 ENE 9 11 5 6 1015.6 1011.9 0.0
11/03:30am 26.0 22.1 3.3 23 11.5 E 13 15 7 8 1015.5 1011.8 0.0
11/03:00am 27.1 22.6 2.2 20 12.4 E 15 20 8 11 1015.3 1011.6 0.0
11/02:30am 27.4 24.0 1.8 19 12.7 E 9 13 5 7 1015.2 1011.5 0.0
11/02:00am 28.6 24.3 1.2 17 13.5 E 13 19 7 10 1015.1 1011.4 0.0
11/01:30am 29.4 24.2 0.1 15 14.3 E 17 24 9 13 1014.9 1011.2 0.0
11/01:00am 30.0 24.9 0.6 15 14.5 E 17 24 9 13 1014.9 1011.2 0.0
11/12:30am 30.2 25.5 0.7 15 14.6 E 15 22 8 12 1014.9 1011.2 0.0
11/12:00am 28.6 24.6 2.7 19 13.1 E 13 17 7 9 1015.0 1011.3 0.0
 
Date/Time
WST
Temp
°C
App
Temp
°C
Dew
Point
Rel
Hum
%
Delta-T
°C
Wind Press
QNH
hPa
Press
MSL
hPa
Rain
since 9 am
mm
Dir
 
Spd
km/h
Gust
km/h
Spd
kts
Gust
kts
10/11:30pm 28.6 25.0 2.7 19 13.1 E 11 15 6 8 1015.1 1011.4 0.0
10/11:00pm 29.3 26.0 2.5 18 13.6 E 9 13 5 7 1015.3 1011.6 0.0
10/10:30pm 29.6 26.4 2.8 18 13.7 E 9 11 5 6 1015.5 1011.8 0.0
10/10:00pm 30.7 27.3 2.0 16 14.6 ESE 9 11 5 6 1015.6 1011.9 0.0
10/09:30pm 31.4 27.6 1.7 15 15.1 E 11 13 6 7 1015.8 1012.2 0.0
10/09:00pm 31.7 28.1 2.8 16 15.0 E 11 17 6 9 1015.8 1012.2 0.0
10/08:30pm 32.9 29.1 1.9 14 15.9 ESE 11 15 6 8 1015.5 1011.8 0.0
10/08:00pm 33.4 30.2 3.3 15 15.9 E 9 11 5 6 1015.3 1011.6 0.0
10/07:30pm 34.7 31.9 3.3 14 16.7 E 7 11 4 6 1014.8 1011.1 0.0
10/07:00pm 36.7 31.7 1.5 11 18.4 SE 17 22 9 12 1014.5 1010.8 0.0
10/06:30pm 37.9 32.8 1.0 10 19.3 SSE 17 20 9 11 1014.0 1010.2 0.0
10/06:00pm 38.7 33.5 0.2 9 19.9 SSE 17 26 9 14 1013.6 1009.9 0.0
10/05:30pm 38.7 35.4 0.2 9 19.9 SSE 7 17 4 9 1013.5 1009.8 0.0
10/05:00pm 39.3 34.9 0.6 9 20.2 NE 13 24 7 13 1013.3 1009.6 0.0
10/04:30pm 39.8 35.1 1.0 9 20.5 ESE 15 22 8 12 1013.2 1009.5 0.0
10/04:00pm 39.4 35.4 0.7 9 20.3 SE 11 19 6 10 1013.2 1009.5 0.0
10/03:30pm 39.1 34.7 0.5 9 20.1 E 13 24 7 13 1013.4 1009.7 0.0
10/03:00pm 39.6 34.9 0.9 9 20.4 ESE 15 22 8 12 1013.7 1010.0 0.0
10/02:30pm 40.2 35.8 2.8 10 20.3 E 15 22 8 12 1013.8 1010.1 0.0
10/02:00pm 39.6 34.9 0.9 9 20.4 E 15 24 8 13 1014.2 1010.5 0.0
10/01:30pm 38.6 33.6 1.6 10 19.6 SSE 17 32 9 17 1014.5 1010.8 0.0
10/01:00pm 38.6 35.2 1.6 10 19.6 ESE 9 19 5 10 1014.8 1011.1 0.0
10/12:30pm 37.8 33.7 2.3 11 18.9 NNE 13 22 7 12 1015.2 1011.5 0.0
10/12:00pm 37.3 34.3 4.3 13 18.0 ENE 9 17 5 9 1015.6 1011.9 0.0
10/11:30am 37.2 34.1 7.2 16 17.1 ENE 13 20 7 11 1016.0 1012.4 0.0
10/11:00am 36.6 33.6 7.6 17 16.6 E 13 19 7 10 1016.6 1012.9 0.0
10/10:30am 35.9 33.5 8.7 19 15.8 ENE 11 20 6 11 1017.1 1013.4 0.0
10/10:00am 34.9 31.5 9.3 21 14.9 ENE 17 24 9 13 1017.4 1013.7 0.0
10/09:30am 33.7 30.3 9.0 22 14.3 ENE 17 26 9 14 1017.6 1013.9 0.0
10/09:00am 32.9 29.1 9.0 23 13.7 ENE 19 30 10 16 1017.7 1014.1 0.0
10/08:30am 31.6 28.2 9.2 25 12.9 ENE 17 22 9 12 1017.8 1014.2 0.0
10/08:00am 30.5 26.6 8.8 26 12.3 ENE 19 24 10 13 1017.6 1013.9 0.0
10/07:30am 28.6 25.9 8.8 29 11.1 E 13 17 7 9 1017.5 1013.8 0.0
10/07:00am 27.1 24.8 7.5 29 10.7 E 9 17 5 9 1017.1 1013.4 0.0
10/06:30am 25.0 22.8 6.2 30 9.9 ESE 7 9 4 5 1016.9 1013.2 0.0
10/06:00am 23.6 21.0 6.0 32 9.2 SE 9 11 5 6 1016.7 1013.0 0.0
10/05:30am 24.2 21.4 5.1 29 9.8 E 9 11 5 6 1016.2 1012.5 0.0
10/05:00am 24.9 21.1 4.1 26 10.6 ENE 13 19 7 10 1015.6 1011.9 0.0
10/04:30am 25.1 21.3 3.7 25 10.8 E 13 17 7 9 1015.4 1011.7 0.0
10/04:00am 25.2 21.6 3.2 24 11.0 E 11 15 6 8 1015.3 1011.6 0.0
10/03:30am 26.1 22.5 2.7 22 11.7 E 11 15 6 8 1015.0 1011.3 0.0
10/03:00am 26.5 22.0 2.4 21 12.0 E 15 20 8 11 1014.9 1011.2 0.0
10/02:30am 25.9 22.2 2.6 22 11.6 E 11 17 6 9 1014.8 1011.1 0.0
10/02:00am 25.6 22.3 2.3 22 11.5 ESE 9 11 5 6 1014.8 1011.1 0.0
10/01:30am 25.3 22.5 3.3 24 11.0 ESE 7 11 4 6 1014.9 1011.2 0.0
10/01:00am 25.6 22.4 2.9 23 11.3 E 9 11 5 6 1015.0 1011.3 0.0
10/12:30am 26.4 23.8 3.0 22 11.8 SE 6 6 3 3 1015.0 1011.3 0.0
10/12:00am 27.4 23.7 2.5 20 12.5 E 11 13 6 7 1015.3 1011.6 0.0
 
Date/Time
WST
Temp
°C
App
Temp
°C
Dew
Point
Rel
Hum
%
Delta-T
°C
Wind Press
QNH
hPa
Press
MSL
hPa
Rain
since 9 am
mm
Dir
 
Spd
km/h
Gust
km/h
Spd
kts
Gust
kts
09/11:30pm 27.5 24.2 2.6 20 12.5 ENE 9 13 5 7 1015.5 1011.8 0.0
09/11:00pm 29.2 25.2 0.8 16 14.0 ESE 11 15 6 8 1015.6 1011.9 0.0
09/10:30pm 29.2 24.9 0.8 16 14.0 E 13 17 7 9 1015.8 1012.2 0.0
09/10:00pm 29.3 25.1 1.7 17 13.8 ENE 13 15 7 8 1015.9 1012.3 0.0
09/09:30pm 30.8 27.3 1.2 15 14.8 ESE 9 13 5 7 1015.9 1012.3 0.0
09/09:00pm 31.6 27.4 1.8 15 15.2 SE 13 17 7 9 1016.0 1012.4 0.0
09/08:30pm 32.3 28.2 2.4 15 15.4 SE 13 15 7 8 1015.8 1012.2 0.0
09/08:00pm 32.3 29.0 2.4 15 15.4 SE 9 11 5 6 1015.5 1011.8 0.0
09/07:30pm 33.7 30.2 1.5 13 16.5 ESE 9 13 5 7 1015.3 1011.6 0.0
09/07:00pm 35.1 31.3 -1.1 10 18.0 ESE 9 11 5 6 1014.9 1011.2 0.0
09/06:30pm 36.9 32.3 -1.1 9 19.1 SE 13 17 7 9 1014.7 1011.0 0.0
09/06:00pm 37.7 32.9 -2.2 8 19.8 SE 13 19 7 10 1014.5 1010.8 0.0
09/05:30pm 38.0 33.3 -1.9 8 19.9 ESE 13 20 7 11 1014.4 1010.7 0.0
09/05:00pm 38.0 33.9 -0.3 9 19.6 ENE 11 19 6 10 1014.3 1010.6 0.0
09/04:30pm 38.7 34.1 -1.4 8 20.3 SSE 13 22 7 12 1014.4 1010.7 0.0
09/04:00pm 38.7 34.1 -1.4 8 20.3 ESE 13 28 7 15 1014.4 1010.7 0.0
09/03:30pm 37.9 34.3 -2.0 8 19.9 SW 7 13 4 7 1014.5 1010.8 0.0
09/03:00pm 38.8 33.8 -1.3 8 20.3 SSE 15 20 8 11 1014.8 1011.1 0.0
09/02:30pm 38.1 34.7 -0.3 9 19.7 ESE 7 17 4 9 1014.9 1011.2 0.0
09/02:00pm 37.1 33.5 0.4 10 18.9 NE 9 17 5 9 1015.4 1011.7 0.0
09/01:30pm 37.8 32.9 -0.5 9 19.5 SE 15 22 8 12 1015.8 1012.2 0.0
09/01:00pm 37.1 33.5 0.4 10 18.9 SE 9 22 5 12 1016.2 1012.5 0.0
09/12:30pm 36.2 33.1 3.4 13 17.6 SSE 9 17 5 9 1016.5 1012.8 0.0
09/12:00pm 36.9 33.7 5.0 14 17.6 NE 11 19 6 10 1016.9 1013.2 0.0
09/11:30am 35.9 32.2 4.2 14 17.2 E 13 22 7 12 1017.4 1013.7 0.0
09/11:00am 35.1 32.0 7.2 18 15.8 NE 13 24 7 13 1017.7 1014.1 0.0
09/10:30am 34.5 30.9 8.3 20 15.0 ENE 17 22 9 12 1018.3 1014.6 0.0
09/10:00am 33.5 29.5 8.2 21 14.4 E 19 32 10 17 1018.6 1014.9 0.0
09/09:30am 32.4 28.3 8.0 22 13.8 ENE 19 26 10 14 1018.8 1015.1 0.0
09/09:00am 31.2 27.1 8.8 25 12.7 ENE 20 26 11 14 1019.0 1015.3 0.0
09/08:30am 30.1 26.1 9.1 27 12.0 ENE 20 30 11 16 1019.0 1015.3 0.0
09/08:00am 28.4 24.3 8.7 29 11.0 ENE 20 28 11 15 1019.0 1015.3 0.0
09/07:30am 26.9 23.3 8.4 31 10.3 ENE 17 22 9 12 1018.8 1015.1 0.0
09/07:00am 25.4 22.5 8.0 33 9.5 E 13 19 7 10 1018.7 1015.0 0.0
09/06:30am 23.7 21.0 7.3 35 8.8 E 11 17 6 9 1018.4 1014.7 0.0
09/06:00am 21.8 19.5 7.6 40 7.5 ENE 9 13 5 7 1018.0 1014.4 0.0
09/05:30am 22.3 19.5 6.9 37 8.1 E 11 13 6 7 1017.6 1013.9 0.0
09/05:00am 22.6 20.2 7.2 37 8.2 E 9 11 5 6 1017.4 1013.7 0.0
09/04:30am 23.1 20.3 6.8 35 8.6 E 11 13 6 7 1017.2 1013.5 0.0
09/04:00am 23.5 20.3 6.7 34 8.9 E 13 17 7 9 1017.0 1013.3 0.0
09/03:30am 24.1 21.4 7.3 34 9.0 E 11 13 6 7 1016.8 1013.1 0.0
09/03:00am 24.9 21.8 7.1 32 9.5 E 13 17 7 9 1016.7 1013.0 0.0
09/02:30am 25.5 22.0 7.1 31 9.9 E 15 19 8 10 1016.7 1013.0 0.0
09/02:00am 25.7 22.6 7.3 31 9.9 E 13 19 7 10 1016.7 1013.0 0.0
09/01:30am 26.0 23.2 7.1 30 10.2 E 11 15 6 8 1016.7 1013.0 0.0
09/01:00am 26.6 23.7 6.6 28 10.7 E 11 13 6 7 1016.9 1013.2 0.0
09/12:30am 27.2 23.9 6.6 27 11.1 E 13 17 7 9 1017.0 1013.3 0.0
09/12:00am 27.2 24.7 6.6 27 11.1 E 9 13 5 7 1017.2 1013.5 0.0
 
Date/Time
WST
Temp
°C
App
Temp
°C
Dew
Point
Rel
Hum
%
Delta-T
°C
Wind Press
QNH
hPa
Press
MSL
hPa
Rain
since 9 am
mm
Dir
 
Spd
km/h
Gust
km/h
Spd
kts
Gust
kts
08/11:30pm 27.0 24.8 6.4 27 11.0 ESE 7 9 4 5 1017.4 1013.7 0.0
08/11:00pm 27.5 24.6 6.3 26 11.4 ESE 11 17 6 9 1017.6 1013.9 0.0
08/10:30pm 28.4 25.4 5.9 24 12.0 ESE 11 17 6 9 1017.6 1013.9 0.0
08/10:00pm 29.0 26.0 5.8 23 12.4 ESE 11 17 6 9 1017.8 1014.2 0.0
08/09:30pm 29.8 25.8 5.1 21 13.2 ESE 15 19 8 10 1017.6 1013.9 0.0
08/09:00pm 30.1 27.0 5.4 21 13.2 SE 11 13 6 7 1017.4 1013.7 0.0
08/08:30pm 30.9 28.0 4.6 19 14.0 SE 9 13 5 7 1017.1 1013.4 0.0
08/08:00pm 31.8 28.4 3.8 17 14.7 SE 11 15 6 8 1016.7 1013.0 0.0
08/07:30pm 32.6 29.9 3.5 16 15.3 ESE 7 15 4 8 1016.4 1012.7 0.0
08/07:00pm 33.8 30.5 2.6 14 16.3 ESE 9 15 5 8 1016.0 1012.4 0.0
08/06:30pm 35.3 31.1 -0.9 10 18.1 ESE 11 13 6 7 1015.7 1012.0 0.0
08/06:00pm 36.0 31.9 -0.4 10 18.4 ESE 11 17 6 9 1015.4 1011.7 0.0
08/05:30pm 36.2 31.5 -1.7 9 18.8 SE 13 20 7 11 1015.1 1011.4 0.0
08/05:00pm 36.5 31.1 -1.4 9 18.9 SSE 17 24 9 13 1015.0 1011.3 0.0

Other Formats:

Comma delimited format used in spreadsheet applications
http://www.bom.gov.au/fwo/IDW60801/IDW60801.95448.axf

JavaScript Object Notation format (JSON) in row-major order
http://www.bom.gov.au/fwo/IDW60801/IDW60801.95448.json